sensor_id;sensor_type;location;lat;lon;timestamp;P1;durP1;ratioP1;P2;durP2;ratioP2
71387;SDS011;59201;59.902;10.520;2023-04-06T00:02:26;3.30;;;0.80;;
71387;SDS011;59201;59.902;10.520;2023-04-06T00:04:54;2.25;;;0.70;;
71387;SDS011;59201;59.902;10.520;2023-04-06T00:07:23;2.65;;;0.80;;
71387;SDS011;59201;59.902;10.520;2023-04-06T00:09:54;3.22;;;0.77;;
71387;SDS011;59201;59.902;10.520;2023-04-06T00:12:21;2.93;;;0.90;;
71387;SDS011;59201;59.902;10.520;2023-04-06T00:14:51;1.70;;;0.70;;
71387;SDS011;59201;59.902;10.520;2023-04-06T00:17:22;3.33;;;0.90;;
71387;SDS011;59201;59.902;10.520;2023-04-06T00:19:50;2.38;;;0.73;;
71387;SDS011;59201;59.902;10.520;2023-04-06T00:22:19;3.58;;;0.90;;
71387;SDS011;59201;59.902;10.520;2023-04-06T00:24:50;3.23;;;0.90;;
71387;SDS011;59201;59.902;10.520;2023-04-06T00:27:18;3.65;;;1.05;;
71387;SDS011;59201;59.902;10.520;2023-04-06T00:29:48;2.88;;;0.75;;
71387;SDS011;59201;59.902;10.520;2023-04-06T00:32:18;3.22;;;1.10;;
71387;SDS011;59201;59.902;10.520;2023-04-06T00:34:46;3.00;;;0.80;;
71387;SDS011;59201;59.902;10.520;2023-04-06T00:37:15;2.77;;;0.80;;
71387;SDS011;59201;59.902;10.520;2023-04-06T00:39:42;3.78;;;0.80;;
71387;SDS011;59201;59.902;10.520;2023-04-06T00:42:13;1.70;;;0.70;;
71387;SDS011;59201;59.902;10.520;2023-04-06T00:44:45;2.50;;;0.80;;
71387;SDS011;59201;59.902;10.520;2023-04-06T00:47:15;3.00;;;0.80;;
71387;SDS011;59201;59.902;10.520;2023-04-06T00:49:43;2.70;;;0.90;;
71387;SDS011;59201;59.902;10.520;2023-04-06T00:52:13;2.85;;;0.85;;
71387;SDS011;59201;59.902;10.520;2023-04-06T00:54:44;2.40;;;0.70;;
71387;SDS011;59201;59.902;10.520;2023-04-06T00:57:15;2.38;;;0.70;;
71387;SDS011;59201;59.902;10.520;2023-04-06T00:59:45;1.80;;;0.68;;
71387;SDS011;59201;59.902;10.520;2023-04-06T01:02:14;2.60;;;1.07;;
71387;SDS011;59201;59.902;10.520;2023-04-06T01:04:43;1.88;;;0.63;;
71387;SDS011;59201;59.902;10.520;2023-04-06T01:07:13;2.17;;;0.80;;
71387;SDS011;59201;59.902;10.520;2023-04-06T01:09:42;1.63;;;0.60;;
71387;SDS011;59201;59.902;10.520;2023-04-06T01:12:09;2.90;;;0.70;;
71387;SDS011;59201;59.902;10.520;2023-04-06T01:14:37;2.60;;;0.80;;
71387;SDS011;59201;59.902;10.520;2023-04-06T01:17:09;2.97;;;0.90;;
71387;SDS011;59201;59.902;10.520;2023-04-06T01:19:37;2.45;;;0.70;;
71387;SDS011;59201;59.902;10.520;2023-04-06T01:22:07;2.90;;;0.80;;
71387;SDS011;59201;59.902;10.520;2023-04-06T01:24:37;2.58;;;0.70;;
71387;SDS011;59201;59.902;10.520;2023-04-06T01:27:04;5.00;;;0.97;;
71387;SDS011;59201;59.902;10.520;2023-04-06T01:29:33;2.05;;;0.60;;
71387;SDS011;59201;59.902;10.520;2023-04-06T01:32:03;2.10;;;0.70;;
71387;SDS011;59201;59.902;10.520;2023-04-06T01:34:34;3.28;;;0.80;;
71387;SDS011;59201;59.902;10.520;2023-04-06T01:37:02;4.22;;;1.10;;
71387;SDS011;59201;59.902;10.520;2023-04-06T01:39:30;2.13;;;0.70;;
71387;SDS011;59201;59.902;10.520;2023-04-06T01:42:02;3.20;;;0.90;;
71387;SDS011;59201;59.902;10.520;2023-04-06T01:44:31;3.47;;;0.82;;
71387;SDS011;59201;59.902;10.520;2023-04-06T01:47:02;3.05;;;0.82;;
71387;SDS011;59201;59.902;10.520;2023-04-06T01:49:30;2.60;;;0.80;;
71387;SDS011;59201;59.902;10.520;2023-04-06T01:52:00;3.63;;;0.90;;
71387;SDS011;59201;59.902;10.520;2023-04-06T01:54:29;3.70;;;0.93;;
71387;SDS011;59201;59.902;10.520;2023-04-06T01:56:57;3.25;;;0.90;;
71387;SDS011;59201;59.902;10.520;2023-04-06T01:59:28;3.40;;;1.00;;
71387;SDS011;59201;59.902;10.520;2023-04-06T02:01:55;3.75;;;0.90;;
71387;SDS011;59201;59.902;10.520;2023-04-06T02:04:26;5.67;;;1.17;;
71387;SDS011;59201;59.902;10.520;2023-04-06T02:06:53;4.50;;;0.90;;
71387;SDS011;59201;59.902;10.520;2023-04-06T02:09:21;3.28;;;0.80;;
71387;SDS011;59201;59.902;10.520;2023-04-06T02:11:50;4.47;;;1.00;;
71387;SDS011;59201;59.902;10.520;2023-04-06T02:14:20;3.30;;;0.95;;
71387;SDS011;59201;59.902;10.520;2023-04-06T02:16:52;3.47;;;1.00;;
71387;SDS011;59201;59.902;10.520;2023-04-06T02:19:21;4.40;;;0.93;;
71387;SDS011;59201;59.902;10.520;2023-04-06T02:21:52;2.92;;;0.85;;
71387;SDS011;59201;59.902;10.520;2023-04-06T02:24:22;3.20;;;1.15;;
71387;SDS011;59201;59.902;10.520;2023-04-06T02:26:52;4.10;;;0.90;;
71387;SDS011;59201;59.902;10.520;2023-04-06T02:29:20;3.67;;;1.03;;
71387;SDS011;59201;59.902;10.520;2023-04-06T02:31:48;4.43;;;1.20;;
71387;SDS011;59201;59.902;10.520;2023-04-06T02:34:16;3.45;;;0.90;;
71387;SDS011;59201;59.902;10.520;2023-04-06T02:36:45;5.85;;;0.93;;
71387;SDS011;59201;59.902;10.520;2023-04-06T02:39:15;3.42;;;0.93;;
71387;SDS011;59201;59.902;10.520;2023-04-06T02:41:42;3.20;;;0.90;;
71387;SDS011;59201;59.902;10.520;2023-04-06T02:44:11;4.15;;;1.00;;
71387;SDS011;59201;59.902;10.520;2023-04-06T02:46:39;4.38;;;0.90;;
71387;SDS011;59201;59.902;10.520;2023-04-06T02:49:11;2.40;;;0.70;;
71387;SDS011;59201;59.902;10.520;2023-04-06T02:51:39;3.95;;;0.90;;
71387;SDS011;59201;59.902;10.520;2023-04-06T02:54:09;3.93;;;1.00;;
71387;SDS011;59201;59.902;10.520;2023-04-06T02:56:37;3.17;;;0.90;;
71387;SDS011;59201;59.902;10.520;2023-04-06T02:59:04;3.10;;;0.88;;
71387;SDS011;59201;59.902;10.520;2023-04-06T03:01:36;3.25;;;0.90;;
71387;SDS011;59201;59.902;10.520;2023-04-06T03:04:03;3.85;;;0.98;;
71387;SDS011;59201;59.902;10.520;2023-04-06T03:06:32;3.23;;;0.90;;
71387;SDS011;59201;59.902;10.520;2023-04-06T03:09:00;3.00;;;0.90;;
71387;SDS011;59201;59.902;10.520;2023-04-06T03:11:30;4.07;;;0.80;;
71387;SDS011;59201;59.902;10.520;2023-04-06T03:13:59;2.33;;;0.80;;
71387;SDS011;59201;59.902;10.520;2023-04-06T03:16:28;4.13;;;0.90;;
71387;SDS011;59201;59.902;10.520;2023-04-06T03:18:57;3.47;;;0.93;;
71387;SDS011;59201;59.902;10.520;2023-04-06T03:21:25;4.57;;;1.20;;
71387;SDS011;59201;59.902;10.520;2023-04-06T03:23:55;3.30;;;0.90;;
71387;SDS011;59201;59.902;10.520;2023-04-06T03:26:23;3.63;;;0.93;;
71387;SDS011;59201;59.902;10.520;2023-04-06T03:28:51;3.67;;;0.98;;
71387;SDS011;59201;59.902;10.520;2023-04-06T03:31:20;2.40;;;0.77;;
71387;SDS011;59201;59.902;10.520;2023-04-06T03:33:49;2.25;;;0.77;;
71387;SDS011;59201;59.902;10.520;2023-04-06T03:36:15;2.72;;;0.70;;
71387;SDS011;59201;59.902;10.520;2023-04-06T03:38:45;2.97;;;0.80;;
71387;SDS011;59201;59.902;10.520;2023-04-06T03:41:14;3.25;;;0.88;;
71387;SDS011;59201;59.902;10.520;2023-04-06T03:43:42;3.57;;;0.90;;
71387;SDS011;59201;59.902;10.520;2023-04-06T03:46:13;2.75;;;0.80;;
71387;SDS011;59201;59.902;10.520;2023-04-06T03:48:41;3.53;;;0.90;;
71387;SDS011;59201;59.902;10.520;2023-04-06T03:51:09;3.20;;;0.90;;
71387;SDS011;59201;59.902;10.520;2023-04-06T03:53:39;2.67;;;0.80;;
71387;SDS011;59201;59.902;10.520;2023-04-06T03:56:07;3.27;;;1.00;;
71387;SDS011;59201;59.902;10.520;2023-04-06T03:58:39;2.65;;;0.80;;
71387;SDS011;59201;59.902;10.520;2023-04-06T04:01:08;3.25;;;0.80;;
71387;SDS011;59201;59.902;10.520;2023-04-06T04:03:37;3.40;;;1.00;;
71387;SDS011;59201;59.902;10.520;2023-04-06T04:06:04;4.00;;;0.90;;
71387;SDS011;59201;59.902;10.520;2023-04-06T04:08:31;3.80;;;1.07;;
71387;SDS011;59201;59.902;10.520;2023-04-06T04:11:05;3.40;;;1.10;;
71387;SDS011;59201;59.902;10.520;2023-04-06T04:13:32;3.55;;;0.90;;
71387;SDS011;59201;59.902;10.520;2023-04-06T04:16:00;3.08;;;0.90;;
71387;SDS011;59201;59.902;10.520;2023-04-06T04:18:28;2.60;;;0.80;;
71387;SDS011;59201;59.902;10.520;2023-04-06T04:20:59;6.03;;;0.90;;
71387;SDS011;59201;59.902;10.520;2023-04-06T04:23:31;4.18;;;0.98;;
71387;SDS011;59201;59.902;10.520;2023-04-06T04:25:58;2.67;;;0.77;;
71387;SDS011;59201;59.902;10.520;2023-04-06T04:28:28;3.63;;;1.00;;
71387;SDS011;59201;59.902;10.520;2023-04-06T04:30:57;3.72;;;1.00;;
71387;SDS011;59201;59.902;10.520;2023-04-06T04:33:27;6.27;;;1.27;;
71387;SDS011;59201;59.902;10.520;2023-04-06T04:35:55;3.83;;;0.80;;
71387;SDS011;59201;59.902;10.520;2023-04-06T04:38:24;4.47;;;1.10;;
71387;SDS011;59201;59.902;10.520;2023-04-06T04:40:53;3.63;;;0.90;;
71387;SDS011;59201;59.902;10.520;2023-04-06T04:43:22;3.20;;;0.90;;
71387;SDS011;59201;59.902;10.520;2023-04-06T04:45:50;3.43;;;1.10;;
71387;SDS011;59201;59.902;10.520;2023-04-06T04:48:18;5.30;;;1.20;;
71387;SDS011;59201;59.902;10.520;2023-04-06T04:50:47;3.30;;;0.90;;
71387;SDS011;59201;59.902;10.520;2023-04-06T04:53:18;3.63;;;1.00;;
71387;SDS011;59201;59.902;10.520;2023-04-06T04:55:49;4.65;;;1.05;;
71387;SDS011;59201;59.902;10.520;2023-04-06T04:58:16;3.83;;;1.10;;
71387;SDS011;59201;59.902;10.520;2023-04-06T05:00:48;3.75;;;0.88;;
71387;SDS011;59201;59.902;10.520;2023-04-06T05:03:32;3.65;;;1.00;;
71387;SDS011;59201;59.902;10.520;2023-04-06T05:06:02;3.47;;;0.90;;
71387;SDS011;59201;59.902;10.520;2023-04-06T05:08:30;4.20;;;1.13;;
71387;SDS011;59201;59.902;10.520;2023-04-06T05:10:58;4.33;;;0.90;;
71387;SDS011;59201;59.902;10.520;2023-04-06T05:13:26;4.10;;;1.30;;
71387;SDS011;59201;59.902;10.520;2023-04-06T05:15:56;3.90;;;0.90;;
71387;SDS011;59201;59.902;10.520;2023-04-06T05:18:27;3.10;;;0.80;;
71387;SDS011;59201;59.902;10.520;2023-04-06T05:20:55;3.60;;;1.00;;
71387;SDS011;59201;59.902;10.520;2023-04-06T05:23:30;3.83;;;1.10;;
71387;SDS011;59201;59.902;10.520;2023-04-06T05:26:03;4.50;;;1.30;;
71387;SDS011;59201;59.902;10.520;2023-04-06T05:28:36;5.20;;;1.15;;
71387;SDS011;59201;59.902;10.520;2023-04-06T05:31:09;5.45;;;1.00;;
71387;SDS011;59201;59.902;10.520;2023-04-06T05:33:39;4.00;;;1.10;;
71387;SDS011;59201;59.902;10.520;2023-04-06T05:36:13;3.27;;;0.90;;
71387;SDS011;59201;59.902;10.520;2023-04-06T05:38:48;4.55;;;1.40;;
71387;SDS011;59201;59.902;10.520;2023-04-06T05:41:18;4.25;;;1.13;;
71387;SDS011;59201;59.902;10.520;2023-04-06T05:43:46;4.30;;;1.20;;
71387;SDS011;59201;59.902;10.520;2023-04-06T05:46:14;3.55;;;1.10;;
71387;SDS011;59201;59.902;10.520;2023-04-06T05:48:42;3.70;;;1.10;;
71387;SDS011;59201;59.902;10.520;2023-04-06T05:51:10;3.78;;;1.00;;
71387;SDS011;59201;59.902;10.520;2023-04-06T05:53:43;3.53;;;1.00;;
71387;SDS011;59201;59.902;10.520;2023-04-06T05:56:27;3.35;;;0.98;;
71387;SDS011;59201;59.902;10.520;2023-04-06T05:58:57;4.10;;;1.10;;
71387;SDS011;59201;59.902;10.520;2023-04-06T06:01:26;2.83;;;0.97;;
71387;SDS011;59201;59.902;10.520;2023-04-06T06:03:56;4.68;;;1.30;;
71387;SDS011;59201;59.902;10.520;2023-04-06T06:06:25;4.57;;;1.15;;
71387;SDS011;59201;59.902;10.520;2023-04-06T06:09:00;4.70;;;1.30;;
71387;SDS011;59201;59.902;10.520;2023-04-06T06:11:41;4.75;;;1.20;;
71387;SDS011;59201;59.902;10.520;2023-04-06T06:14:17;4.00;;;1.00;;
71387;SDS011;59201;59.902;10.520;2023-04-06T06:16:44;4.80;;;1.27;;
71387;SDS011;59201;59.902;10.520;2023-04-06T06:19:14;4.93;;;1.30;;
71387;SDS011;59201;59.902;10.520;2023-04-06T06:21:43;5.20;;;1.45;;
71387;SDS011;59201;59.902;10.520;2023-04-06T06:24:18;3.97;;;1.13;;
71387;SDS011;59201;59.902;10.520;2023-04-06T06:26:47;4.57;;;1.30;;
71387;SDS011;59201;59.902;10.520;2023-04-06T06:29:16;6.63;;;1.20;;
71387;SDS011;59201;59.902;10.520;2023-04-06T06:31:43;5.82;;;1.30;;
71387;SDS011;59201;59.902;10.520;2023-04-06T06:34:12;4.68;;;1.30;;
71387;SDS011;59201;59.902;10.520;2023-04-06T06:36:40;4.50;;;1.30;;
71387;SDS011;59201;59.902;10.520;2023-04-06T06:39:11;4.57;;;1.20;;
71387;SDS011;59201;59.902;10.520;2023-04-06T06:41:38;4.13;;;1.08;;
71387;SDS011;59201;59.902;10.520;2023-04-06T06:44:06;4.63;;;1.20;;
71387;SDS011;59201;59.902;10.520;2023-04-06T06:46:33;5.05;;;1.30;;
71387;SDS011;59201;59.902;10.520;2023-04-06T06:49:01;4.20;;;1.30;;
71387;SDS011;59201;59.902;10.520;2023-04-06T06:51:28;4.30;;;1.30;;
71387;SDS011;59201;59.902;10.520;2023-04-06T06:54:00;4.25;;;1.10;;
71387;SDS011;59201;59.902;10.520;2023-04-06T06:56:29;3.67;;;1.02;;
71387;SDS011;59201;59.902;10.520;2023-04-06T06:59:02;4.25;;;1.20;;
71387;SDS011;59201;59.902;10.520;2023-04-06T07:01:34;5.28;;;1.05;;
71387;SDS011;59201;59.902;10.520;2023-04-06T07:04:05;3.33;;;0.90;;
71387;SDS011;59201;59.902;10.520;2023-04-06T07:06:35;3.70;;;1.10;;
71387;SDS011;59201;59.902;10.520;2023-04-06T07:09:03;3.95;;;1.00;;
71387;SDS011;59201;59.902;10.520;2023-04-06T07:11:31;4.15;;;1.20;;
71387;SDS011;59201;59.902;10.520;2023-04-06T07:14:00;3.95;;;1.10;;
71387;SDS011;59201;59.902;10.520;2023-04-06T07:16:29;3.00;;;0.90;;
71387;SDS011;59201;59.902;10.520;2023-04-06T07:18:58;5.13;;;1.15;;
71387;SDS011;59201;59.902;10.520;2023-04-06T07:21:31;2.08;;;0.70;;
71387;SDS011;59201;59.902;10.520;2023-04-06T07:23:59;4.00;;;1.00;;
71387;SDS011;59201;59.902;10.520;2023-04-06T07:26:27;3.60;;;1.00;;
71387;SDS011;59201;59.902;10.520;2023-04-06T07:28:55;3.37;;;0.80;;
71387;SDS011;59201;59.902;10.520;2023-04-06T07:31:26;2.85;;;0.90;;
71387;SDS011;59201;59.902;10.520;2023-04-06T07:33:55;2.25;;;0.77;;
71387;SDS011;59201;59.902;10.520;2023-04-06T07:36:25;3.00;;;0.90;;
71387;SDS011;59201;59.902;10.520;2023-04-06T07:38:53;4.40;;;1.20;;
71387;SDS011;59201;59.902;10.520;2023-04-06T07:41:22;3.37;;;0.97;;
71387;SDS011;59201;59.902;10.520;2023-04-06T07:43:50;4.00;;;0.90;;
71387;SDS011;59201;59.902;10.520;2023-04-06T07:46:18;2.50;;;0.75;;
71387;SDS011;59201;59.902;10.520;2023-04-06T07:48:46;4.05;;;1.10;;
71387;SDS011;59201;59.902;10.520;2023-04-06T07:51:16;4.45;;;1.10;;
71387;SDS011;59201;59.902;10.520;2023-04-06T07:53:45;4.90;;;1.40;;
71387;SDS011;59201;59.902;10.520;2023-04-06T07:56:12;4.30;;;1.20;;
71387;SDS011;59201;59.902;10.520;2023-04-06T07:58:49;3.33;;;1.17;;
71387;SDS011;59201;59.902;10.520;2023-04-06T08:01:21;5.35;;;1.27;;
71387;SDS011;59201;59.902;10.520;2023-04-06T08:03:49;1.88;;;0.75;;
71387;SDS011;59201;59.902;10.520;2023-04-06T08:06:19;4.60;;;1.23;;
71387;SDS011;59201;59.902;10.520;2023-04-06T08:08:46;5.07;;;1.10;;
71387;SDS011;59201;59.902;10.520;2023-04-06T08:11:13;3.13;;;1.00;;
71387;SDS011;59201;59.902;10.520;2023-04-06T08:13:43;4.20;;;1.20;;
71387;SDS011;59201;59.902;10.520;2023-04-06T08:16:12;3.92;;;1.05;;
71387;SDS011;59201;59.902;10.520;2023-04-06T08:18:41;4.70;;;1.50;;
71387;SDS011;59201;59.902;10.520;2023-04-06T08:21:08;4.72;;;1.00;;
71387;SDS011;59201;59.902;10.520;2023-04-06T08:23:39;2.63;;;0.80;;
71387;SDS011;59201;59.902;10.520;2023-04-06T08:26:07;2.17;;;0.75;;
71387;SDS011;59201;59.902;10.520;2023-04-06T08:28:37;3.60;;;0.90;;
71387;SDS011;59201;59.902;10.520;2023-04-06T08:31:06;4.10;;;1.00;;
71387;SDS011;59201;59.902;10.520;2023-04-06T08:33:34;3.40;;;1.00;;
71387;SDS011;59201;59.902;10.520;2023-04-06T08:36:11;3.03;;;0.90;;
71387;SDS011;59201;59.902;10.520;2023-04-06T08:38:40;3.92;;;1.10;;
71387;SDS011;59201;59.902;10.520;2023-04-06T08:41:09;3.55;;;1.00;;
71387;SDS011;59201;59.902;10.520;2023-04-06T08:43:47;3.93;;;1.03;;
71387;SDS011;59201;59.902;10.520;2023-04-06T08:46:20;3.60;;;1.05;;
71387;SDS011;59201;59.902;10.520;2023-04-06T08:48:56;3.88;;;1.00;;
71387;SDS011;59201;59.902;10.520;2023-04-06T08:51:25;4.40;;;1.20;;
71387;SDS011;59201;59.902;10.520;2023-04-06T08:53:54;4.00;;;1.20;;
71387;SDS011;59201;59.902;10.520;2023-04-06T08:56:23;4.63;;;1.20;;
71387;SDS011;59201;59.902;10.520;2023-04-06T08:59:00;3.90;;;1.10;;
71387;SDS011;59201;59.902;10.520;2023-04-06T09:01:28;3.97;;;1.20;;
71387;SDS011;59201;59.902;10.520;2023-04-06T09:04:00;3.90;;;1.10;;
71387;SDS011;59201;59.902;10.520;2023-04-06T09:06:36;3.88;;;1.08;;
71387;SDS011;59201;59.902;10.520;2023-04-06T09:09:05;3.77;;;1.10;;
71387;SDS011;59201;59.902;10.520;2023-04-06T09:11:42;3.67;;;1.10;;
71387;SDS011;59201;59.902;10.520;2023-04-06T09:14:14;4.90;;;1.63;;
71387;SDS011;59201;59.902;10.520;2023-04-06T09:16:43;3.67;;;1.00;;
71387;SDS011;59201;59.902;10.520;2023-04-06T09:19:12;4.05;;;1.10;;
71387;SDS011;59201;59.902;10.520;2023-04-06T09:21:42;4.50;;;1.20;;
71387;SDS011;59201;59.902;10.520;2023-04-06T09:24:12;3.85;;;1.25;;
71387;SDS011;59201;59.902;10.520;2023-04-06T09:26:44;4.00;;;1.20;;
71387;SDS011;59201;59.902;10.520;2023-04-06T09:29:22;3.30;;;1.17;;
71387;SDS011;59201;59.902;10.520;2023-04-06T09:31:52;1.90;;;0.73;;
71387;SDS011;59201;59.902;10.520;2023-04-06T09:34:22;4.27;;;1.30;;
71387;SDS011;59201;59.902;10.520;2023-04-06T09:36:50;4.20;;;1.25;;
71387;SDS011;59201;59.902;10.520;2023-04-06T09:39:20;2.97;;;0.82;;
71387;SDS011;59201;59.902;10.520;2023-04-06T09:41:51;5.30;;;1.30;;
71387;SDS011;59201;59.902;10.520;2023-04-06T09:44:19;4.53;;;1.30;;
71387;SDS011;59201;59.902;10.520;2023-04-06T09:46:50;3.20;;;0.97;;
71387;SDS011;59201;59.902;10.520;2023-04-06T09:49:20;4.20;;;1.20;;
71387;SDS011;59201;59.902;10.520;2023-04-06T09:51:59;5.22;;;1.10;;
71387;SDS011;59201;59.902;10.520;2023-04-06T09:54:28;3.75;;;1.10;;
71387;SDS011;59201;59.902;10.520;2023-04-06T09:57:07;4.07;;;1.13;;
71387;SDS011;59201;59.902;10.520;2023-04-06T10:02:13;4.15;;;1.00;;
71387;SDS011;59201;59.902;10.520;2023-04-06T10:04:43;2.22;;;0.77;;
71387;SDS011;59201;59.902;10.520;2023-04-06T10:07:16;4.50;;;1.13;;
71387;SDS011;59201;59.902;10.520;2023-04-06T10:09:46;3.38;;;0.90;;
71387;SDS011;59201;59.902;10.520;2023-04-06T10:12:15;4.83;;;1.20;;
71387;SDS011;59201;59.902;10.520;2023-04-06T10:14:47;2.45;;;0.70;;
71387;SDS011;59201;59.902;10.520;2023-04-06T10:17:16;3.40;;;1.00;;
71387;SDS011;59201;59.902;10.520;2023-04-06T10:19:50;4.50;;;1.25;;
71387;SDS011;59201;59.902;10.520;2023-04-06T10:22:32;4.15;;;1.10;;
71387;SDS011;59201;59.902;10.520;2023-04-06T10:25:02;3.40;;;0.90;;
71387;SDS011;59201;59.902;10.520;2023-04-06T10:27:30;3.25;;;0.90;;
71387;SDS011;59201;59.902;10.520;2023-04-06T10:30:03;3.58;;;1.00;;
71387;SDS011;59201;59.902;10.520;2023-04-06T10:32:32;1.80;;;0.80;;
71387;SDS011;59201;59.902;10.520;2023-04-06T10:35:10;3.88;;;1.10;;
71387;SDS011;59201;59.902;10.520;2023-04-06T10:40:18;3.88;;;1.10;;
71387;SDS011;59201;59.902;10.520;2023-04-06T10:42:45;3.50;;;0.88;;
71387;SDS011;59201;59.902;10.520;2023-04-06T10:45:22;4.47;;;1.00;;
71387;SDS011;59201;59.902;10.520;2023-04-06T10:47:55;3.70;;;1.00;;
71387;SDS011;59201;59.902;10.520;2023-04-06T10:50:23;2.70;;;1.00;;
71387;SDS011;59201;59.902;10.520;2023-04-06T10:53:00;5.32;;;1.10;;
71387;SDS011;59201;59.902;10.520;2023-04-06T10:55:28;4.38;;;1.15;;
71387;SDS011;59201;59.902;10.520;2023-04-06T10:57:59;1.88;;;0.70;;
71387;SDS011;59201;59.902;10.520;2023-04-06T11:00:27;4.50;;;1.15;;
71387;SDS011;59201;59.902;10.520;2023-04-06T11:02:58;4.33;;;1.10;;
71387;SDS011;59201;59.902;10.520;2023-04-06T11:05:27;3.75;;;1.13;;
71387;SDS011;59201;59.902;10.520;2023-04-06T11:07:55;3.35;;;1.00;;
71387;SDS011;59201;59.902;10.520;2023-04-06T11:10:26;5.35;;;1.27;;
71387;SDS011;59201;59.902;10.520;2023-04-06T11:12:56;4.30;;;1.13;;
71387;SDS011;59201;59.902;10.520;2023-04-06T11:15:25;4.50;;;1.23;;
71387;SDS011;59201;59.902;10.520;2023-04-06T11:17:53;4.20;;;1.40;;
71387;SDS011;59201;59.902;10.520;2023-04-06T11:20:23;4.82;;;1.42;;
71387;SDS011;59201;59.902;10.520;2023-04-06T11:22:51;4.75;;;1.40;;
71387;SDS011;59201;59.902;10.520;2023-04-06T11:25:21;6.32;;;1.40;;
71387;SDS011;59201;59.902;10.520;2023-04-06T11:27:49;4.00;;;1.03;;
71387;SDS011;59201;59.902;10.520;2023-04-06T11:30:17;4.30;;;1.10;;
71387;SDS011;59201;59.902;10.520;2023-04-06T11:32:47;4.40;;;1.27;;
71387;SDS011;59201;59.902;10.520;2023-04-06T11:35:22;3.95;;;1.00;;
71387;SDS011;59201;59.902;10.520;2023-04-06T11:37:51;4.10;;;1.00;;
71387;SDS011;59201;59.902;10.520;2023-04-06T11:40:23;4.30;;;1.20;;
71387;SDS011;59201;59.902;10.520;2023-04-06T11:42:55;2.47;;;0.80;;
71387;SDS011;59201;59.902;10.520;2023-04-06T11:45:23;3.95;;;1.08;;
71387;SDS011;59201;59.902;10.520;2023-04-06T11:47:58;4.43;;;1.13;;
71387;SDS011;59201;59.902;10.520;2023-04-06T11:50:34;4.82;;;1.30;;
71387;SDS011;59201;59.902;10.520;2023-04-06T11:53:03;5.07;;;1.30;;
71387;SDS011;59201;59.902;10.520;2023-04-06T11:55:36;4.65;;;1.38;;
71387;SDS011;59201;59.902;10.520;2023-04-06T11:58:05;4.75;;;1.23;;
71387;SDS011;59201;59.902;10.520;2023-04-06T12:00:34;4.47;;;1.30;;
71387;SDS011;59201;59.902;10.520;2023-04-06T12:03:04;3.40;;;0.90;;
71387;SDS011;59201;59.902;10.520;2023-04-06T12:05:34;4.23;;;1.20;;
71387;SDS011;59201;59.902;10.520;2023-04-06T12:08:01;4.72;;;1.58;;
71387;SDS011;59201;59.902;10.520;2023-04-06T12:10:30;6.03;;;1.27;;
71387;SDS011;59201;59.902;10.520;2023-04-06T12:12:58;3.47;;;1.00;;
71387;SDS011;59201;59.902;10.520;2023-04-06T12:15:27;4.80;;;1.40;;
71387;SDS011;59201;59.902;10.520;2023-04-06T12:17:54;4.83;;;1.43;;
71387;SDS011;59201;59.902;10.520;2023-04-06T12:20:22;4.95;;;1.25;;
71387;SDS011;59201;59.902;10.520;2023-04-06T12:22:49;3.83;;;1.17;;
71387;SDS011;59201;59.902;10.520;2023-04-06T12:25:18;6.07;;;1.45;;
71387;SDS011;59201;59.902;10.520;2023-04-06T12:27:48;3.28;;;1.10;;
71387;SDS011;59201;59.902;10.520;2023-04-06T12:30:20;4.33;;;1.20;;
71387;SDS011;59201;59.902;10.520;2023-04-06T12:32:50;4.80;;;1.40;;
71387;SDS011;59201;59.902;10.520;2023-04-06T12:35:19;3.65;;;1.23;;
71387;SDS011;59201;59.902;10.520;2023-04-06T12:37:47;5.45;;;1.77;;
71387;SDS011;59201;59.902;10.520;2023-04-06T12:40:16;4.72;;;1.40;;
71387;SDS011;59201;59.902;10.520;2023-04-06T12:42:43;3.97;;;1.10;;
71387;SDS011;59201;59.902;10.520;2023-04-06T12:45:12;4.32;;;1.25;;
71387;SDS011;59201;59.902;10.520;2023-04-06T12:47:40;2.83;;;0.90;;
71387;SDS011;59201;59.902;10.520;2023-04-06T12:50:08;5.57;;;1.17;;
71387;SDS011;59201;59.902;10.520;2023-04-06T12:52:37;3.83;;;1.20;;
71387;SDS011;59201;59.902;10.520;2023-04-06T12:55:07;4.80;;;1.60;;
71387;SDS011;59201;59.902;10.520;2023-04-06T12:57:35;3.72;;;1.30;;
71387;SDS011;59201;59.902;10.520;2023-04-06T13:00:05;4.93;;;1.30;;
71387;SDS011;59201;59.902;10.520;2023-04-06T13:02:34;3.28;;;0.80;;
71387;SDS011;59201;59.902;10.520;2023-04-06T13:05:06;4.00;;;1.02;;
71387;SDS011;59201;59.902;10.520;2023-04-06T13:07:34;4.60;;;1.40;;
71387;SDS011;59201;59.902;10.520;2023-04-06T13:10:04;4.25;;;1.30;;
71387;SDS011;59201;59.902;10.520;2023-04-06T13:12:36;4.40;;;1.40;;
71387;SDS011;59201;59.902;10.520;2023-04-06T13:15:05;4.47;;;1.25;;
71387;SDS011;59201;59.902;10.520;2023-04-06T13:17:35;2.85;;;0.90;;
71387;SDS011;59201;59.902;10.520;2023-04-06T13:20:03;4.30;;;1.20;;
71387;SDS011;59201;59.902;10.520;2023-04-06T13:22:32;4.65;;;1.40;;
71387;SDS011;59201;59.902;10.520;2023-04-06T13:25:03;3.80;;;1.15;;
71387;SDS011;59201;59.902;10.520;2023-04-06T13:27:33;4.65;;;1.60;;
71387;SDS011;59201;59.902;10.520;2023-04-06T13:30:03;5.15;;;1.50;;
71387;SDS011;59201;59.902;10.520;2023-04-06T13:32:32;4.57;;;1.33;;
71387;SDS011;59201;59.902;10.520;2023-04-06T13:35:00;3.90;;;1.20;;
71387;SDS011;59201;59.902;10.520;2023-04-06T13:37:30;5.97;;;1.20;;
71387;SDS011;59201;59.902;10.520;2023-04-06T13:39:57;4.95;;;1.20;;
71387;SDS011;59201;59.902;10.520;2023-04-06T13:42:27;4.38;;;1.30;;
71387;SDS011;59201;59.902;10.520;2023-04-06T13:44:54;4.63;;;1.40;;
71387;SDS011;59201;59.902;10.520;2023-04-06T13:47:25;6.38;;;1.67;;
71387;SDS011;59201;59.902;10.520;2023-04-06T13:49:55;4.53;;;1.33;;
71387;SDS011;59201;59.902;10.520;2023-04-06T13:52:23;4.50;;;1.40;;
71387;SDS011;59201;59.902;10.520;2023-04-06T13:54:52;5.63;;;1.70;;
71387;SDS011;59201;59.902;10.520;2023-04-06T13:57:20;4.73;;;1.50;;
71387;SDS011;59201;59.902;10.520;2023-04-06T13:59:49;4.72;;;1.60;;
71387;SDS011;59201;59.902;10.520;2023-04-06T14:02:18;4.40;;;1.30;;
71387;SDS011;59201;59.902;10.520;2023-04-06T14:04:45;5.00;;;1.67;;
71387;SDS011;59201;59.902;10.520;2023-04-06T14:07:13;4.43;;;1.23;;
71387;SDS011;59201;59.902;10.520;2023-04-06T14:09:41;5.73;;;1.60;;
71387;SDS011;59201;59.902;10.520;2023-04-06T14:12:08;5.43;;;1.55;;
71387;SDS011;59201;59.902;10.520;2023-04-06T14:14:37;5.60;;;1.90;;
71387;SDS011;59201;59.902;10.520;2023-04-06T14:17:06;5.35;;;1.77;;
71387;SDS011;59201;59.902;10.520;2023-04-06T14:19:34;5.53;;;1.83;;
71387;SDS011;59201;59.902;10.520;2023-04-06T14:22:02;5.47;;;1.57;;
71387;SDS011;59201;59.902;10.520;2023-04-06T14:24:30;5.50;;;1.52;;
71387;SDS011;59201;59.902;10.520;2023-04-06T14:26:59;5.28;;;1.85;;
71387;SDS011;59201;59.902;10.520;2023-04-06T14:29:28;6.05;;;2.00;;
71387;SDS011;59201;59.902;10.520;2023-04-06T14:31:57;6.22;;;1.58;;
71387;SDS011;59201;59.902;10.520;2023-04-06T14:34:29;4.90;;;1.57;;
71387;SDS011;59201;59.902;10.520;2023-04-06T14:36:58;6.03;;;1.90;;
71387;SDS011;59201;59.902;10.520;2023-04-06T14:39:30;6.20;;;1.90;;
71387;SDS011;59201;59.902;10.520;2023-04-06T14:41:58;13.07;;;4.75;;
71387;SDS011;59201;59.902;10.520;2023-04-06T14:44:28;7.03;;;2.72;;
71387;SDS011;59201;59.902;10.520;2023-04-06T14:46:59;8.10;;;2.30;;
71387;SDS011;59201;59.902;10.520;2023-04-06T14:49:27;6.43;;;2.10;;
71387;SDS011;59201;59.902;10.520;2023-04-06T14:51:54;4.32;;;1.60;;
71387;SDS011;59201;59.902;10.520;2023-04-06T14:54:24;6.25;;;1.70;;